Airfield :







YOU CAN JOIN US ON...

 
LOGIN :

Register | Disclaimer

   EN    FR    IT 

 









Legend :    VFR   Marginal VFR   IFR   Intensive IFR   Very Intensive IFR
Visi :
Ceiling :
>= 8 km
>= 3000ft
5 to 8 km
1000 to 3000 ft
1500m to 5 km
500 to 1000 ft
800 to 1500m
200 to 500 ft
< 800m
< 200 ft
Symbols :   Thunderstorms  Fog  Heavy snow  Heavy precipitations  Wind > 20 kt






- Airport Elevation : 110 ft
- IATA code : YFB


CYFB - Iqaluit

CURRENT METAR :
  • 010500Z 33005KT 15SM SKC M25/M30 A3107 RMK SLP529

EXPIRED METARs :
  • 010400Z 00000KT 15SM SKC M23/M29 A3107 RMK SLP527
  • 010300Z 02009KT 15SM FEW160 M21/M28 A3107 RMK AC2 SLP528

TAF TAF CYFB
Valid from the 01 at 00:00 until the 02 at 00:00 UTC


312338Z 0100/0124 VRB03KT P6SM FEW240
FM010600 35005KT P6SM BKN080 RMK NXT FCST BY 010600Z



MET'MAP, your aeronautical weather chart ! - Copyright ORBIFLY December 2007 - Disclaimer

ORBIFLY MET'MAP TEAM :

Programming & Development : Alexandra Zaïnal
Concept & original design : Baudouin d'Aumeries
Assistance for programming : Marc-Olivier Méhu
Technical & hardware support : Manuel Goepfert

Contact : metmap@orbifly.com




SOURCES & CREDITS :

   NOAA